sensor_id;sensor_type;location;lat;lon;timestamp;temperature;humidity
6865;DHT22;3471;49.678;8.388;2023-07-24T00:01:42;22.00;99.90
6865;DHT22;3471;49.678;8.388;2023-07-24T00:04:08;22.00;99.90
6865;DHT22;3471;49.678;8.388;2023-07-24T00:06:33;22.00;99.90
6865;DHT22;3471;49.678;8.388;2023-07-24T00:08:59;22.00;99.90
6865;DHT22;3471;49.678;8.388;2023-07-24T00:11:25;22.00;99.90
6865;DHT22;3471;49.678;8.388;2023-07-24T00:13:50;22.00;99.90
6865;DHT22;3471;49.678;8.388;2023-07-24T00:16:16;22.00;99.90
6865;DHT22;3471;49.678;8.388;2023-07-24T00:18:41;22.00;99.90
6865;DHT22;3471;49.678;8.388;2023-07-24T00:21:07;22.00;99.90
6865;DHT22;3471;49.678;8.388;2023-07-24T00:23:32;22.00;99.90
6865;DHT22;3471;49.678;8.388;2023-07-24T00:25:58;22.00;99.90
6865;DHT22;3471;49.678;8.388;2023-07-24T00:28:23;22.00;99.90
6865;DHT22;3471;49.678;8.388;2023-07-24T00:30:49;22.00;99.90
6865;DHT22;3471;49.678;8.388;2023-07-24T00:33:15;22.00;99.90
6865;DHT22;3471;49.678;8.388;2023-07-24T00:35:40;22.00;99.90
6865;DHT22;3471;49.678;8.388;2023-07-24T00:38:06;22.00;99.90
6865;DHT22;3471;49.678;8.388;2023-07-24T00:40:31;22.00;99.90
6865;DHT22;3471;49.678;8.388;2023-07-24T00:42:57;22.00;99.90
6865;DHT22;3471;49.678;8.388;2023-07-24T00:45:22;22.00;99.90
6865;DHT22;3471;49.678;8.388;2023-07-24T00:47:48;22.00;99.90
6865;DHT22;3471;49.678;8.388;2023-07-24T00:50:14;22.10;99.90
6865;DHT22;3471;49.678;8.388;2023-07-24T00:52:40;22.00;99.90
6865;DHT22;3471;49.678;8.388;2023-07-24T00:55:07;22.00;99.90
6865;DHT22;3471;49.678;8.388;2023-07-24T00:57:33;22.10;99.90
6865;DHT22;3471;49.678;8.388;2023-07-24T00:59:59;22.10;99.90
6865;DHT22;3471;49.678;8.388;2023-07-24T01:02:25;22.10;99.90
6865;DHT22;3471;49.678;8.388;2023-07-24T01:04:51;22.10;99.90
6865;DHT22;3471;49.678;8.388;2023-07-24T01:07:17;22.00;99.90
6865;DHT22;3471;49.678;8.388;2023-07-24T01:09:42;21.90;99.90
6865;DHT22;3471;49.678;8.388;2023-07-24T01:12:15;21.90;99.90
6865;DHT22;3471;49.678;8.388;2023-07-24T01:14:49;21.90;99.90
6865;DHT22;3471;49.678;8.388;2023-07-24T01:17:23;21.80;99.90
6865;DHT22;3471;49.678;8.388;2023-07-24T01:19:50;21.80;99.90
6865;DHT22;3471;49.678;8.388;2023-07-24T01:25:09;21.70;99.90
6865;DHT22;3471;49.678;8.388;2023-07-24T01:27:44;21.70;99.90
6865;DHT22;3471;49.678;8.388;2023-07-24T01:30:10;21.70;99.90
6865;DHT22;3471;49.678;8.388;2023-07-24T01:32:36;21.60;99.90
6865;DHT22;3471;49.678;8.388;2023-07-24T01:35:03;21.60;99.90
6865;DHT22;3471;49.678;8.388;2023-07-24T01:37:29;21.60;99.90
6865;DHT22;3471;49.678;8.388;2023-07-24T01:39:55;21.50;99.90
6865;DHT22;3471;49.678;8.388;2023-07-24T01:42:22;21.50;99.90
6865;DHT22;3471;49.678;8.388;2023-07-24T01:44:54;21.60;99.90
6865;DHT22;3471;49.678;8.388;2023-07-24T01:47:21;21.60;99.90
6865;DHT22;3471;49.678;8.388;2023-07-24T01:49:47;21.60;99.90
6865;DHT22;3471;49.678;8.388;2023-07-24T01:52:13;21.60;99.90
6865;DHT22;3471;49.678;8.388;2023-07-24T01:54:38;21.60;99.90
6865;DHT22;3471;49.678;8.388;2023-07-24T01:57:04;21.60;99.90
6865;DHT22;3471;49.678;8.388;2023-07-24T01:59:30;21.50;99.90
6865;DHT22;3471;49.678;8.388;2023-07-24T02:01:56;21.50;99.90
6865;DHT22;3471;49.678;8.388;2023-07-24T02:04:21;21.50;99.90
6865;DHT22;3471;49.678;8.388;2023-07-24T02:06:51;21.50;99.90
6865;DHT22;3471;49.678;8.388;2023-07-24T02:09:20;21.50;99.90
6865;DHT22;3471;49.678;8.388;2023-07-24T02:11:45;21.50;99.90
6865;DHT22;3471;49.678;8.388;2023-07-24T02:14:13;21.50;99.90
6865;DHT22;3471;49.678;8.388;2023-07-24T02:16:39;21.50;99.90
6865;DHT22;3471;49.678;8.388;2023-07-24T02:19:05;21.50;99.90
6865;DHT22;3471;49.678;8.388;2023-07-24T02:21:30;21.50;99.90
6865;DHT22;3471;49.678;8.388;2023-07-24T02:23:56;21.50;99.90
6865;DHT22;3471;49.678;8.388;2023-07-24T02:26:22;21.60;99.90
6865;DHT22;3471;49.678;8.388;2023-07-24T02:28:47;21.50;99.90
6865;DHT22;3471;49.678;8.388;2023-07-24T02:31:13;21.50;99.90
6865;DHT22;3471;49.678;8.388;2023-07-24T02:33:38;21.50;99.90
6865;DHT22;3471;49.678;8.388;2023-07-24T02:36:04;21.40;99.90
6865;DHT22;3471;49.678;8.388;2023-07-24T02:38:30;21.40;99.90
6865;DHT22;3471;49.678;8.388;2023-07-24T02:40:55;21.30;99.90
6865;DHT22;3471;49.678;8.388;2023-07-24T02:43:21;21.20;99.90
6865;DHT22;3471;49.678;8.388;2023-07-24T02:45:46;21.20;99.90
6865;DHT22;3471;49.678;8.388;2023-07-24T02:48:12;21.10;99.90
6865;DHT22;3471;49.678;8.388;2023-07-24T02:50:37;21.00;99.90
6865;DHT22;3471;49.678;8.388;2023-07-24T02:53:03;21.00;99.90
6865;DHT22;3471;49.678;8.388;2023-07-24T02:55:29;20.90;99.90
6865;DHT22;3471;49.678;8.388;2023-07-24T02:57:55;20.90;99.90
6865;DHT22;3471;49.678;8.388;2023-07-24T03:00:21;20.80;99.90
6865;DHT22;3471;49.678;8.388;2023-07-24T03:02:46;20.80;99.90
6865;DHT22;3471;49.678;8.388;2023-07-24T03:05:12;20.70;99.90
6865;DHT22;3471;49.678;8.388;2023-07-24T03:07:37;20.70;99.90
6865;DHT22;3471;49.678;8.388;2023-07-24T03:10:03;20.60;99.90
6865;DHT22;3471;49.678;8.388;2023-07-24T03:12:29;20.60;99.90
6865;DHT22;3471;49.678;8.388;2023-07-24T03:14:54;20.50;99.90
6865;DHT22;3471;49.678;8.388;2023-07-24T03:17:20;20.50;99.90
6865;DHT22;3471;49.678;8.388;2023-07-24T03:19:47;20.40;99.90
6865;DHT22;3471;49.678;8.388;2023-07-24T03:22:13;20.40;99.90
6865;DHT22;3471;49.678;8.388;2023-07-24T03:24:39;20.40;99.90
6865;DHT22;3471;49.678;8.388;2023-07-24T03:27:04;20.40;99.90
6865;DHT22;3471;49.678;8.388;2023-07-24T03:29:30;20.40;99.90
6865;DHT22;3471;49.678;8.388;2023-07-24T03:31:55;20.40;99.90
6865;DHT22;3471;49.678;8.388;2023-07-24T03:34:21;20.40;99.90
6865;DHT22;3471;49.678;8.388;2023-07-24T03:36:46;20.40;99.90
6865;DHT22;3471;49.678;8.388;2023-07-24T03:39:12;20.40;99.90
6865;DHT22;3471;49.678;8.388;2023-07-24T03:41:42;20.50;99.90
6865;DHT22;3471;49.678;8.388;2023-07-24T03:44:08;20.50;99.90
6865;DHT22;3471;49.678;8.388;2023-07-24T03:46:34;20.50;99.90
6865;DHT22;3471;49.678;8.388;2023-07-24T03:48:59;20.50;99.90
6865;DHT22;3471;49.678;8.388;2023-07-24T03:51:25;20.60;99.90
6865;DHT22;3471;49.678;8.388;2023-07-24T03:53:50;20.60;99.90
6865;DHT22;3471;49.678;8.388;2023-07-24T03:56:16;20.60;99.90
6865;DHT22;3471;49.678;8.388;2023-07-24T03:58:42;20.70;99.90
6865;DHT22;3471;49.678;8.388;2023-07-24T04:01:08;20.70;99.90
6865;DHT22;3471;49.678;8.388;2023-07-24T04:03:34;20.70;99.90
6865;DHT22;3471;49.678;8.388;2023-07-24T04:06:00;20.70;99.90
6865;DHT22;3471;49.678;8.388;2023-07-24T04:08:25;20.70;99.90
6865;DHT22;3471;49.678;8.388;2023-07-24T04:10:51;20.70;99.90
6865;DHT22;3471;49.678;8.388;2023-07-24T04:13:17;20.80;99.90
6865;DHT22;3471;49.678;8.388;2023-07-24T04:15:43;20.80;99.90
6865;DHT22;3471;49.678;8.388;2023-07-24T04:18:09;20.80;99.90
6865;DHT22;3471;49.678;8.388;2023-07-24T04:20:35;20.80;99.90
6865;DHT22;3471;49.678;8.388;2023-07-24T04:23:01;20.80;99.90
6865;DHT22;3471;49.678;8.388;2023-07-24T04:25:26;20.80;99.90
6865;DHT22;3471;49.678;8.388;2023-07-24T04:27:52;20.90;99.90
6865;DHT22;3471;49.678;8.388;2023-07-24T04:30:18;20.90;99.90
6865;DHT22;3471;49.678;8.388;2023-07-24T04:32:43;20.90;99.90
6865;DHT22;3471;49.678;8.388;2023-07-24T04:35:09;20.90;99.90
6865;DHT22;3471;49.678;8.388;2023-07-24T04:37:35;21.00;99.90
6865;DHT22;3471;49.678;8.388;2023-07-24T04:40:00;21.00;99.90
6865;DHT22;3471;49.678;8.388;2023-07-24T04:42:26;21.00;99.90
6865;DHT22;3471;49.678;8.388;2023-07-24T04:44:51;21.10;99.90
6865;DHT22;3471;49.678;8.388;2023-07-24T04:47:17;21.20;99.90
6865;DHT22;3471;49.678;8.388;2023-07-24T04:49:43;21.20;99.90
6865;DHT22;3471;49.678;8.388;2023-07-24T04:52:08;21.20;99.90
6865;DHT22;3471;49.678;8.388;2023-07-24T04:54:34;21.20;99.90
6865;DHT22;3471;49.678;8.388;2023-07-24T04:56:59;21.20;99.90
6865;DHT22;3471;49.678;8.388;2023-07-24T04:59:25;21.30;99.90
6865;DHT22;3471;49.678;8.388;2023-07-24T05:01:50;21.30;99.90
6865;DHT22;3471;49.678;8.388;2023-07-24T05:04:16;21.40;99.90
6865;DHT22;3471;49.678;8.388;2023-07-24T05:06:41;21.40;99.90
6865;DHT22;3471;49.678;8.388;2023-07-24T05:09:07;21.40;99.90
6865;DHT22;3471;49.678;8.388;2023-07-24T05:11:33;21.50;99.90
6865;DHT22;3471;49.678;8.388;2023-07-24T05:13:58;21.60;99.90
6865;DHT22;3471;49.678;8.388;2023-07-24T05:16:24;21.60;99.90
6865;DHT22;3471;49.678;8.388;2023-07-24T05:18:49;21.70;99.90
6865;DHT22;3471;49.678;8.388;2023-07-24T05:21:15;21.70;99.90
6865;DHT22;3471;49.678;8.388;2023-07-24T05:23:40;21.80;99.90
6865;DHT22;3471;49.678;8.388;2023-07-24T05:26:06;21.80;99.90
6865;DHT22;3471;49.678;8.388;2023-07-24T05:28:32;21.80;99.90
6865;DHT22;3471;49.678;8.388;2023-07-24T05:31:02;21.90;99.90
6865;DHT22;3471;49.678;8.388;2023-07-24T05:33:28;21.90;99.90
6865;DHT22;3471;49.678;8.388;2023-07-24T05:36:02;21.90;99.90
6865;DHT22;3471;49.678;8.388;2023-07-24T05:38:27;22.00;99.90
6865;DHT22;3471;49.678;8.388;2023-07-24T05:41:01;22.00;99.90
6865;DHT22;3471;49.678;8.388;2023-07-24T05:43:27;22.10;99.90
6865;DHT22;3471;49.678;8.388;2023-07-24T05:45:54;22.10;99.90
6865;DHT22;3471;49.678;8.388;2023-07-24T05:48:21;22.20;99.90
6865;DHT22;3471;49.678;8.388;2023-07-24T05:50:46;22.20;99.90
6865;DHT22;3471;49.678;8.388;2023-07-24T05:53:13;22.30;99.90
6865;DHT22;3471;49.678;8.388;2023-07-24T05:55:39;22.30;99.90
6865;DHT22;3471;49.678;8.388;2023-07-24T05:58:04;22.30;99.90
6865;DHT22;3471;49.678;8.388;2023-07-24T06:00:30;22.30;99.90
6865;DHT22;3471;49.678;8.388;2023-07-24T06:02:55;22.30;99.90
6865;DHT22;3471;49.678;8.388;2023-07-24T06:05:21;22.30;99.90
6865;DHT22;3471;49.678;8.388;2023-07-24T06:07:47;22.30;99.90
6865;DHT22;3471;49.678;8.388;2023-07-24T06:10:13;22.20;99.90
6865;DHT22;3471;49.678;8.388;2023-07-24T06:12:39;22.20;99.90
6865;DHT22;3471;49.678;8.388;2023-07-24T06:15:05;22.20;99.90
6865;DHT22;3471;49.678;8.388;2023-07-24T06:17:31;22.20;99.90
6865;DHT22;3471;49.678;8.388;2023-07-24T06:19:57;22.20;99.90
6865;DHT22;3471;49.678;8.388;2023-07-24T06:22:22;22.30;99.90
6865;DHT22;3471;49.678;8.388;2023-07-24T06:24:48;22.40;99.90
6865;DHT22;3471;49.678;8.388;2023-07-24T06:27:14;22.40;99.90
6865;DHT22;3471;49.678;8.388;2023-07-24T06:29:40;22.50;99.90
6865;DHT22;3471;49.678;8.388;2023-07-24T06:32:05;22.60;99.90
6865;DHT22;3471;49.678;8.388;2023-07-24T06:34:31;22.70;99.90
6865;DHT22;3471;49.678;8.388;2023-07-24T06:36:57;22.70;99.90
6865;DHT22;3471;49.678;8.388;2023-07-24T06:39:22;22.80;99.90
6865;DHT22;3471;49.678;8.388;2023-07-24T06:41:48;22.90;99.90
6865;DHT22;3471;49.678;8.388;2023-07-24T06:44:13;23.00;99.90
6865;DHT22;3471;49.678;8.388;2023-07-24T06:46:39;23.10;99.90
6865;DHT22;3471;49.678;8.388;2023-07-24T06:49:05;23.20;99.90
6865;DHT22;3471;49.678;8.388;2023-07-24T06:51:30;23.40;99.90
6865;DHT22;3471;49.678;8.388;2023-07-24T06:53:56;23.50;99.90
6865;DHT22;3471;49.678;8.388;2023-07-24T06:56:21;23.60;99.90
6865;DHT22;3471;49.678;8.388;2023-07-24T06:58:47;23.70;99.90
6865;DHT22;3471;49.678;8.388;2023-07-24T07:01:12;23.80;99.90
6865;DHT22;3471;49.678;8.388;2023-07-24T07:03:38;23.80;99.90
6865;DHT22;3471;49.678;8.388;2023-07-24T07:06:04;23.80;99.90
6865;DHT22;3471;49.678;8.388;2023-07-24T07:08:30;23.80;99.90
6865;DHT22;3471;49.678;8.388;2023-07-24T07:10:57;23.90;99.90
6865;DHT22;3471;49.678;8.388;2023-07-24T07:13:22;23.90;99.90
6865;DHT22;3471;49.678;8.388;2023-07-24T07:15:48;23.90;99.90
6865;DHT22;3471;49.678;8.388;2023-07-24T07:18:13;24.00;99.90
6865;DHT22;3471;49.678;8.388;2023-07-24T07:20:47;24.20;99.90
6865;DHT22;3471;49.678;8.388;2023-07-24T07:23:13;24.40;99.90
6865;DHT22;3471;49.678;8.388;2023-07-24T07:25:39;24.50;99.90
6865;DHT22;3471;49.678;8.388;2023-07-24T07:28:05;24.60;99.90
6865;DHT22;3471;49.678;8.388;2023-07-24T07:30:30;24.70;99.90
6865;DHT22;3471;49.678;8.388;2023-07-24T07:32:56;24.90;99.90
6865;DHT22;3471;49.678;8.388;2023-07-24T07:35:22;25.10;99.90
6865;DHT22;3471;49.678;8.388;2023-07-24T07:37:47;25.20;99.90
6865;DHT22;3471;49.678;8.388;2023-07-24T07:40:13;25.30;99.90
6865;DHT22;3471;49.678;8.388;2023-07-24T07:42:38;25.40;99.90
6865;DHT22;3471;49.678;8.388;2023-07-24T07:45:04;25.50;99.90
6865;DHT22;3471;49.678;8.388;2023-07-24T07:47:30;25.50;99.90
6865;DHT22;3471;49.678;8.388;2023-07-24T07:49:56;25.50;99.90
6865;DHT22;3471;49.678;8.388;2023-07-24T07:52:21;25.50;99.90
6865;DHT22;3471;49.678;8.388;2023-07-24T07:54:48;25.50;99.90
6865;DHT22;3471;49.678;8.388;2023-07-24T07:57:14;25.40;99.90
6865;DHT22;3471;49.678;8.388;2023-07-24T07:59:40;25.30;99.90
6865;DHT22;3471;49.678;8.388;2023-07-24T08:02:06;25.20;99.90
6865;DHT22;3471;49.678;8.388;2023-07-24T08:04:31;25.10;99.90
6865;DHT22;3471;49.678;8.388;2023-07-24T08:06:57;25.10;99.90
6865;DHT22;3471;49.678;8.388;2023-07-24T08:09:23;25.00;99.90
6865;DHT22;3471;49.678;8.388;2023-07-24T08:11:50;25.00;99.90
6865;DHT22;3471;49.678;8.388;2023-07-24T08:14:16;24.90;99.90
6865;DHT22;3471;49.678;8.388;2023-07-24T08:16:42;24.80;99.90
6865;DHT22;3471;49.678;8.388;2023-07-24T08:19:08;24.80;99.90
6865;DHT22;3471;49.678;8.388;2023-07-24T08:21:33;24.90;99.90
6865;DHT22;3471;49.678;8.388;2023-07-24T08:23:59;24.90;99.90
6865;DHT22;3471;49.678;8.388;2023-07-24T08:26:25;24.90;99.90
6865;DHT22;3471;49.678;8.388;2023-07-24T08:28:52;25.00;99.90
6865;DHT22;3471;49.678;8.388;2023-07-24T08:31:17;25.00;99.90
6865;DHT22;3471;49.678;8.388;2023-07-24T08:33:43;25.10;99.90
6865;DHT22;3471;49.678;8.388;2023-07-24T08:36:09;25.10;99.90
6865;DHT22;3471;49.678;8.388;2023-07-24T08:38:37;25.20;99.90
6865;DHT22;3471;49.678;8.388;2023-07-24T08:41:08;25.20;99.90
6865;DHT22;3471;49.678;8.388;2023-07-24T08:43:35;25.20;99.90
6865;DHT22;3471;49.678;8.388;2023-07-24T08:46:02;25.20;99.90
6865;DHT22;3471;49.678;8.388;2023-07-24T08:51:05;25.30;99.90
6865;DHT22;3471;49.678;8.388;2023-07-24T08:53:32;25.30;99.90
6865;DHT22;3471;49.678;8.388;2023-07-24T08:56:05;25.20;99.90
6865;DHT22;3471;49.678;8.388;2023-07-24T08:58:32;25.30;99.90
6865;DHT22;3471;49.678;8.388;2023-07-24T09:00:59;25.40;99.90
6865;DHT22;3471;49.678;8.388;2023-07-24T09:03:25;25.50;99.90
6865;DHT22;3471;49.678;8.388;2023-07-24T09:05:51;25.60;99.90
6865;DHT22;3471;49.678;8.388;2023-07-24T09:08:17;25.80;99.90
6865;DHT22;3471;49.678;8.388;2023-07-24T09:10:42;25.90;99.90
6865;DHT22;3471;49.678;8.388;2023-07-24T09:13:11;26.20;99.90
6865;DHT22;3471;49.678;8.388;2023-07-24T09:15:44;26.20;99.90
6865;DHT22;3471;49.678;8.388;2023-07-24T09:18:10;26.10;99.90
6865;DHT22;3471;49.678;8.388;2023-07-24T09:20:40;26.00;99.90
6865;DHT22;3471;49.678;8.388;2023-07-24T09:23:07;25.90;99.90
6865;DHT22;3471;49.678;8.388;2023-07-24T09:25:35;25.80;99.90
6865;DHT22;3471;49.678;8.388;2023-07-24T09:28:15;25.60;99.90
6865;DHT22;3471;49.678;8.388;2023-07-24T09:30:42;25.50;99.90
6865;DHT22;3471;49.678;8.388;2023-07-24T09:33:16;25.40;99.90
6865;DHT22;3471;49.678;8.388;2023-07-24T09:35:42;25.40;99.90
6865;DHT22;3471;49.678;8.388;2023-07-24T09:38:09;25.40;99.90
6865;DHT22;3471;49.678;8.388;2023-07-24T09:40:42;25.50;99.90
6865;DHT22;3471;49.678;8.388;2023-07-24T09:43:21;25.50;99.90
6865;DHT22;3471;49.678;8.388;2023-07-24T09:45:48;25.60;99.90
6865;DHT22;3471;49.678;8.388;2023-07-24T09:48:15;25.60;99.90
6865;DHT22;3471;49.678;8.388;2023-07-24T09:50:45;25.60;99.90
6865;DHT22;3471;49.678;8.388;2023-07-24T09:56:06;25.60;99.90
6865;DHT22;3471;49.678;8.388;2023-07-24T09:58:34;25.60;99.90
6865;DHT22;3471;49.678;8.388;2023-07-24T10:01:05;25.60;99.90
6865;DHT22;3471;49.678;8.388;2023-07-24T10:03:34;25.60;99.90
6865;DHT22;3471;49.678;8.388;2023-07-24T10:06:00;25.50;99.90
6865;DHT22;3471;49.678;8.388;2023-07-24T10:08:26;25.50;99.90
6865;DHT22;3471;49.678;8.388;2023-07-24T10:10:52;25.50;99.90
6865;DHT22;3471;49.678;8.388;2023-07-24T10:13:20;25.50;99.90
6865;DHT22;3471;49.678;8.388;2023-07-24T10:15:47;25.50;99.90
6865;DHT22;3471;49.678;8.388;2023-07-24T10:18:15;25.40;99.90
6865;DHT22;3471;49.678;8.388;2023-07-24T10:20:41;25.30;99.90
6865;DHT22;3471;49.678;8.388;2023-07-24T10:23:11;25.30;99.90
6865;DHT22;3471;49.678;8.388;2023-07-24T10:25:41;25.30;99.90
6865;DHT22;3471;49.678;8.388;2023-07-24T10:28:11;25.40;99.90
6865;DHT22;3471;49.678;8.388;2023-07-24T10:30:40;25.50;99.90
6865;DHT22;3471;49.678;8.388;2023-07-24T10:33:17;25.70;99.90
6865;DHT22;3471;49.678;8.388;2023-07-24T10:35:45;26.00;99.90
6865;DHT22;3471;49.678;8.388;2023-07-24T10:38:14;26.20;99.90
6865;DHT22;3471;49.678;8.388;2023-07-24T10:40:41;26.40;99.90
6865;DHT22;3471;49.678;8.388;2023-07-24T10:43:09;26.70;99.90
6865;DHT22;3471;49.678;8.388;2023-07-24T10:45:40;26.90;99.90
6865;DHT22;3471;49.678;8.388;2023-07-24T10:48:06;27.10;99.90
6865;DHT22;3471;49.678;8.388;2023-07-24T10:50:39;27.20;99.90
6865;DHT22;3471;49.678;8.388;2023-07-24T10:53:05;27.40;99.90
6865;DHT22;3471;49.678;8.388;2023-07-24T10:55:30;27.50;99.90
6865;DHT22;3471;49.678;8.388;2023-07-24T10:57:56;27.50;99.90
6865;DHT22;3471;49.678;8.388;2023-07-24T11:00:21;27.60;99.90
6865;DHT22;3471;49.678;8.388;2023-07-24T11:02:47;27.70;99.90
6865;DHT22;3471;49.678;8.388;2023-07-24T11:05:13;27.80;99.90
6865;DHT22;3471;49.678;8.388;2023-07-24T11:07:39;27.80;99.90
6865;DHT22;3471;49.678;8.388;2023-07-24T11:10:17;27.80;99.90
6865;DHT22;3471;49.678;8.388;2023-07-24T11:12:43;27.70;99.90
6865;DHT22;3471;49.678;8.388;2023-07-24T11:15:10;27.70;99.90
6865;DHT22;3471;49.678;8.388;2023-07-24T11:17:38;27.60;99.20
6865;DHT22;3471;49.678;8.388;2023-07-24T11:20:11;27.40;99.10
6865;DHT22;3471;49.678;8.388;2023-07-24T11:22:39;27.20;99.50
6865;DHT22;3471;49.678;8.388;2023-07-24T11:25:05;27.00;99.40
6865;DHT22;3471;49.678;8.388;2023-07-24T11:27:32;26.90;99.90
6865;DHT22;3471;49.678;8.388;2023-07-24T11:29:57;26.70;99.90
6865;DHT22;3471;49.678;8.388;2023-07-24T11:32:23;26.70;99.90
6865;DHT22;3471;49.678;8.388;2023-07-24T11:34:49;26.70;99.90
6865;DHT22;3471;49.678;8.388;2023-07-24T11:37:16;26.80;99.90
6865;DHT22;3471;49.678;8.388;2023-07-24T11:39:42;26.80;99.90
6865;DHT22;3471;49.678;8.388;2023-07-24T11:42:07;26.80;99.90
6865;DHT22;3471;49.678;8.388;2023-07-24T11:44:33;26.80;99.90
6865;DHT22;3471;49.678;8.388;2023-07-24T11:49:29;26.80;99.90
6865;DHT22;3471;49.678;8.388;2023-07-24T11:52:04;26.80;99.90
6865;DHT22;3471;49.678;8.388;2023-07-24T11:54:30;26.80;99.90
6865;DHT22;3471;49.678;8.388;2023-07-24T11:56:56;26.80;99.90
6865;DHT22;3471;49.678;8.388;2023-07-24T11:59:21;26.80;99.90
6865;DHT22;3471;49.678;8.388;2023-07-24T12:01:47;26.80;99.90
6865;DHT22;3471;49.678;8.388;2023-07-24T12:04:16;26.90;99.90
6865;DHT22;3471;49.678;8.388;2023-07-24T12:06:42;26.90;99.90
6865;DHT22;3471;49.678;8.388;2023-07-24T12:09:08;26.90;99.90
6865;DHT22;3471;49.678;8.388;2023-07-24T12:11:45;26.80;99.90
6865;DHT22;3471;49.678;8.388;2023-07-24T12:14:12;26.80;99.90
6865;DHT22;3471;49.678;8.388;2023-07-24T12:16:38;26.90;99.90
6865;DHT22;3471;49.678;8.388;2023-07-24T12:19:04;26.90;99.90
6865;DHT22;3471;49.678;8.388;2023-07-24T12:21:29;27.00;99.90
6865;DHT22;3471;49.678;8.388;2023-07-24T12:23:55;27.10;99.90
6865;DHT22;3471;49.678;8.388;2023-07-24T12:26:20;27.10;99.90
6865;DHT22;3471;49.678;8.388;2023-07-24T12:28:47;27.10;99.90
6865;DHT22;3471;49.678;8.388;2023-07-24T12:31:13;27.10;99.90
6865;DHT22;3471;49.678;8.388;2023-07-24T12:33:38;27.30;99.90
6865;DHT22;3471;49.678;8.388;2023-07-24T12:36:04;27.40;99.90
6865;DHT22;3471;49.678;8.388;2023-07-24T12:38:29;27.70;99.90
6865;DHT22;3471;49.678;8.388;2023-07-24T12:40:55;28.10;99.90
6865;DHT22;3471;49.678;8.388;2023-07-24T12:43:21;28.50;99.90
6865;DHT22;3471;49.678;8.388;2023-07-24T12:45:47;28.70;99.90
6865;DHT22;3471;49.678;8.388;2023-07-24T12:48:12;29.00;99.90
6865;DHT22;3471;49.678;8.388;2023-07-24T12:50:38;29.00;99.90
6865;DHT22;3471;49.678;8.388;2023-07-24T12:53:03;29.00;99.90
6865;DHT22;3471;49.678;8.388;2023-07-24T12:55:29;29.00;99.90
6865;DHT22;3471;49.678;8.388;2023-07-24T12:57:55;28.90;99.90
6865;DHT22;3471;49.678;8.388;2023-07-24T13:00:21;28.70;99.90
6865;DHT22;3471;49.678;8.388;2023-07-24T13:02:47;28.50;99.90
6865;DHT22;3471;49.678;8.388;2023-07-24T13:05:13;28.30;99.90
6865;DHT22;3471;49.678;8.388;2023-07-24T13:07:38;28.10;99.90
6865;DHT22;3471;49.678;8.388;2023-07-24T13:10:04;27.90;99.90
6865;DHT22;3471;49.678;8.388;2023-07-24T13:12:30;27.90;99.90
6865;DHT22;3471;49.678;8.388;2023-07-24T13:14:55;27.90;99.90
6865;DHT22;3471;49.678;8.388;2023-07-24T13:17:21;27.80;99.90
6865;DHT22;3471;49.678;8.388;2023-07-24T13:19:47;27.70;99.90
6865;DHT22;3471;49.678;8.388;2023-07-24T13:22:12;27.50;99.90
6865;DHT22;3471;49.678;8.388;2023-07-24T13:24:38;27.40;99.90
6865;DHT22;3471;49.678;8.388;2023-07-24T13:27:04;27.30;99.90
6865;DHT22;3471;49.678;8.388;2023-07-24T13:29:30;27.20;99.90
6865;DHT22;3471;49.678;8.388;2023-07-24T13:31:56;27.10;99.90
6865;DHT22;3471;49.678;8.388;2023-07-24T13:34:24;26.90;99.90
6865;DHT22;3471;49.678;8.388;2023-07-24T13:36:50;26.90;99.90
6865;DHT22;3471;49.678;8.388;2023-07-24T13:39:16;26.90;99.90
6865;DHT22;3471;49.678;8.388;2023-07-24T13:41:42;26.80;99.90
6865;DHT22;3471;49.678;8.388;2023-07-24T13:44:08;26.70;99.90
6865;DHT22;3471;49.678;8.388;2023-07-24T13:46:33;26.70;99.90
6865;DHT22;3471;49.678;8.388;2023-07-24T13:48:59;26.60;99.90
6865;DHT22;3471;49.678;8.388;2023-07-24T13:51:24;26.30;99.90
6865;DHT22;3471;49.678;8.388;2023-07-24T13:53:50;26.20;99.90
6865;DHT22;3471;49.678;8.388;2023-07-24T13:56:17;26.30;99.90
6865;DHT22;3471;49.678;8.388;2023-07-24T13:58:44;26.60;99.90
6865;DHT22;3471;49.678;8.388;2023-07-24T14:01:10;26.80;99.90
6865;DHT22;3471;49.678;8.388;2023-07-24T14:03:35;26.90;99.90
6865;DHT22;3471;49.678;8.388;2023-07-24T14:06:02;26.80;99.90
6865;DHT22;3471;49.678;8.388;2023-07-24T14:08:27;26.60;99.90
6865;DHT22;3471;49.678;8.388;2023-07-24T14:10:53;26.40;99.90
6865;DHT22;3471;49.678;8.388;2023-07-24T14:13:19;26.30;99.90
6865;DHT22;3471;49.678;8.388;2023-07-24T14:15:44;26.10;99.90
6865;DHT22;3471;49.678;8.388;2023-07-24T14:18:10;26.00;99.90
6865;DHT22;3471;49.678;8.388;2023-07-24T14:20:35;25.90;99.90
6865;DHT22;3471;49.678;8.388;2023-07-24T14:23:02;25.90;99.90
6865;DHT22;3471;49.678;8.388;2023-07-24T14:25:28;25.90;99.90
6865;DHT22;3471;49.678;8.388;2023-07-24T14:27:53;26.30;99.90
6865;DHT22;3471;49.678;8.388;2023-07-24T14:30:20;27.00;99.90
6865;DHT22;3471;49.678;8.388;2023-07-24T14:32:45;27.70;99.90
6865;DHT22;3471;49.678;8.388;2023-07-24T14:35:11;28.50;99.90
6865;DHT22;3471;49.678;8.388;2023-07-24T14:37:36;29.20;99.90
6865;DHT22;3471;49.678;8.388;2023-07-24T14:40:02;29.70;99.90
6865;DHT22;3471;49.678;8.388;2023-07-24T14:42:28;30.00;99.90
6865;DHT22;3471;49.678;8.388;2023-07-24T14:44:53;30.20;99.90
6865;DHT22;3471;49.678;8.388;2023-07-24T14:47:19;30.40;99.90
6865;DHT22;3471;49.678;8.388;2023-07-24T14:49:44;30.60;99.80
6865;DHT22;3471;49.678;8.388;2023-07-24T14:52:10;30.40;99.90
6865;DHT22;3471;49.678;8.388;2023-07-24T14:54:36;30.20;99.90
6865;DHT22;3471;49.678;8.388;2023-07-24T14:57:01;30.00;99.90
6865;DHT22;3471;49.678;8.388;2023-07-24T14:59:28;29.70;99.90
6865;DHT22;3471;49.678;8.388;2023-07-24T15:01:54;29.40;99.90
6865;DHT22;3471;49.678;8.388;2023-07-24T15:04:19;29.10;99.90
6865;DHT22;3471;49.678;8.388;2023-07-24T15:06:46;29.00;99.90
6865;DHT22;3471;49.678;8.388;2023-07-24T15:09:12;28.90;99.90
6865;DHT22;3471;49.678;8.388;2023-07-24T15:11:38;29.00;99.90
6865;DHT22;3471;49.678;8.388;2023-07-24T15:14:03;29.20;99.90
6865;DHT22;3471;49.678;8.388;2023-07-24T15:16:29;29.40;99.90
6865;DHT22;3471;49.678;8.388;2023-07-24T15:18:54;29.70;99.90
6865;DHT22;3471;49.678;8.388;2023-07-24T15:21:20;29.90;99.90
6865;DHT22;3471;49.678;8.388;2023-07-24T15:23:45;29.90;99.90
6865;DHT22;3471;49.678;8.388;2023-07-24T15:26:17;29.90;99.90
6865;DHT22;3471;49.678;8.388;2023-07-24T15:28:42;29.90;99.90
6865;DHT22;3471;49.678;8.388;2023-07-24T15:31:09;29.80;99.90
6865;DHT22;3471;49.678;8.388;2023-07-24T15:33:35;29.70;99.90
6865;DHT22;3471;49.678;8.388;2023-07-24T15:36:00;30.00;99.90
6865;DHT22;3471;49.678;8.388;2023-07-24T15:38:26;30.10;99.90
6865;DHT22;3471;49.678;8.388;2023-07-24T15:40:52;30.20;99.90
6865;DHT22;3471;49.678;8.388;2023-07-24T15:43:17;30.30;99.90
6865;DHT22;3471;49.678;8.388;2023-07-24T15:45:43;30.60;99.90
6865;DHT22;3471;49.678;8.388;2023-07-24T15:48:08;30.50;99.50
6865;DHT22;3471;49.678;8.388;2023-07-24T15:50:34;30.10;99.30
6865;DHT22;3471;49.678;8.388;2023-07-24T15:52:59;29.60;99.70
6865;DHT22;3471;49.678;8.388;2023-07-24T15:55:25;29.20;99.90
6865;DHT22;3471;49.678;8.388;2023-07-24T15:57:51;28.60;99.90
6865;DHT22;3471;49.678;8.388;2023-07-24T16:00:16;28.40;99.90
6865;DHT22;3471;49.678;8.388;2023-07-24T16:02:42;28.20;99.90
6865;DHT22;3471;49.678;8.388;2023-07-24T16:05:18;28.00;99.90
6865;DHT22;3471;49.678;8.388;2023-07-24T16:07:45;28.10;99.60